createdAt,value
2023-02-01T00:00:31.298Z,4.55
2023-02-01T00:02:58.335Z,3.72
2023-02-01T00:05:25.380Z,4.57
2023-02-01T00:07:52.492Z,3.85
2023-02-01T00:10:19.931Z,4.07
2023-02-01T00:12:47.240Z,4.30
2023-02-01T00:15:14.315Z,5.38
2023-02-01T00:17:41.366Z,4.13
2023-02-01T00:20:08.884Z,4.72
2023-02-01T00:22:35.949Z,4.50
2023-02-01T00:25:03.119Z,4.82
2023-02-01T00:27:30.210Z,4.63
2023-02-01T00:29:57.457Z,4.82
2023-02-01T00:32:24.589Z,4.15
2023-02-01T00:34:51.616Z,4.95
2023-02-01T00:37:18.628Z,4.85
2023-02-01T00:39:45.762Z,5.20
2023-02-01T00:42:12.878Z,5.00
2023-02-01T00:44:39.938Z,4.57
2023-02-01T00:47:06.989Z,4.70
2023-02-01T00:49:34.082Z,4.53
2023-02-01T00:52:01.200Z,5.25
2023-02-01T00:54:28.404Z,5.13
2023-02-01T00:56:55.449Z,5.72
2023-02-01T00:59:22.489Z,5.95
2023-02-01T01:01:49.587Z,6.68
2023-02-01T01:04:16.632Z,5.15
2023-02-01T01:06:43.733Z,5.82
2023-02-01T01:09:11.242Z,6.00
2023-02-01T01:11:39.229Z,5.43
2023-02-01T01:14:07.100Z,5.18
2023-02-01T01:16:34.535Z,6.22
2023-02-01T01:19:02.152Z,5.60
2023-02-01T01:21:29.341Z,6.32
2023-02-01T01:23:56.793Z,5.68
2023-02-01T01:26:25.304Z,7.68
2023-02-01T01:28:52.754Z,6.82
2023-02-01T01:31:20.626Z,6.40
2023-02-01T01:33:55.260Z,6.00
2023-02-01T01:36:22.600Z,7.43
2023-02-01T01:38:50.192Z,6.22
2023-02-01T01:41:21.580Z,6.72
2023-02-01T01:43:48.659Z,6.38
2023-02-01T01:46:20.184Z,6.63
2023-02-01T01:48:48.418Z,7.40
2023-02-01T01:51:16.326Z,6.82
2023-02-01T01:53:46.847Z,7.40
2023-02-01T01:56:14.216Z,8.18
2023-02-01T01:58:42.187Z,7.90
2023-02-01T02:01:09.367Z,8.55
2023-02-01T02:03:39.578Z,7.80
2023-02-01T02:06:08.980Z,8.43
2023-02-01T02:08:36.044Z,8.32
2023-02-01T02:11:03.141Z,7.60
2023-02-01T02:13:32.894Z,8.70
2023-02-01T02:16:05.983Z,8.18
2023-02-01T02:18:45.131Z,8.85
2023-02-01T02:21:15.605Z,6.38
2023-02-01T02:23:57.891Z,7.80
2023-02-01T02:26:37.111Z,7.57
2023-02-01T02:29:12.929Z,8.63
2023-02-01T02:31:51.766Z,8.55
2023-02-01T02:34:21.583Z,7.90
2023-02-01T02:37:03.702Z,8.88
2023-02-01T02:39:36.494Z,8.57
2023-02-01T02:42:28.450Z,8.88
2023-02-01T02:45:14.181Z,6.75
2023-02-01T02:47:44.171Z,7.60
2023-02-01T02:50:41.971Z,8.70
2023-02-01T02:53:34.386Z,7.68
2023-02-01T02:56:20.404Z,6.68
2023-02-01T02:59:06.850Z,7.30
2023-02-01T03:01:52.727Z,7.05
2023-02-01T03:04:21.931Z,7.15
2023-02-01T03:06:48.960Z,7.75
2023-02-01T03:09:28.608Z,7.65
2023-02-01T03:12:18.036Z,5.45
2023-02-01T03:14:46.940Z,6.63
2023-02-01T03:17:16.149Z,7.50
2023-02-01T03:19:50.406Z,7.07
2023-02-01T03:22:20.176Z,6.65
2023-02-01T03:24:48.701Z,6.60
2023-02-01T03:27:21.877Z,5.65
2023-02-01T03:30:00.820Z,6.15
2023-02-01T03:32:27.986Z,6.05
2023-02-01T03:34:55.627Z,6.80
2023-02-01T03:37:27.454Z,5.45
2023-02-01T03:39:54.481Z,5.90
2023-02-01T03:42:26.157Z,6.57
2023-02-01T03:45:19.438Z,6.43
2023-02-01T03:47:48.795Z,6.25
2023-02-01T03:50:17.188Z,6.15
2023-02-01T03:52:45.779Z,5.80
2023-02-01T03:55:14.234Z,6.78
2023-02-01T03:57:44.910Z,6.93
2023-02-01T04:00:18.593Z,6.65
2023-02-01T04:02:45.710Z,5.28
2023-02-01T04:05:12.812Z,6.15
2023-02-01T04:07:39.890Z,5.72
2023-02-01T04:10:07.451Z,6.70
2023-02-01T04:12:34.530Z,6.03
2023-02-01T04:15:01.611Z,6.72
2023-02-01T04:17:28.767Z,5.63
2023-02-01T04:19:55.824Z,5.97
2023-02-01T04:22:22.953Z,5.32
2023-02-01T04:24:50.035Z,6.43
2023-02-01T04:27:17.137Z,6.47
2023-02-01T04:29:46.082Z,6.35
2023-02-01T04:32:13.104Z,6.13
2023-02-01T04:34:40.113Z,6.63
2023-02-01T04:37:07.212Z,6.68
2023-02-01T04:39:34.336Z,5.68
2023-02-01T04:42:01.360Z,6.32
2023-02-01T04:44:28.379Z,6.28
2023-02-01T04:46:55.399Z,5.80
2023-02-01T04:49:22.811Z,6.05
2023-02-01T04:51:49.828Z,5.07
2023-02-01T04:54:16.883Z,7.20
2023-02-01T04:56:43.902Z,7.05
2023-02-01T04:59:12.158Z,7.15
2023-02-01T05:01:39.340Z,7.05
2023-02-01T05:04:06.459Z,6.95
2023-02-01T05:06:33.532Z,7.18
2023-02-01T05:09:00.628Z,7.13
2023-02-01T05:11:46.204Z,7.45
2023-02-01T05:14:13.231Z,7.72
2023-02-01T05:16:40.258Z,7.65
2023-02-01T05:19:07.298Z,7.53
2023-02-01T05:21:34.311Z,6.88
2023-02-01T05:24:10.460Z,6.50
2023-02-01T05:26:38.051Z,6.72
2023-02-01T05:29:05.894Z,6.78
2023-02-01T05:31:33.002Z,6.78
2023-02-01T05:34:00.036Z,5.78
2023-02-01T05:36:27.289Z,7.03
2023-02-01T05:38:54.379Z,6.80
2023-02-01T05:41:21.437Z,7.47
2023-02-01T05:43:48.468Z,6.80
2023-02-01T05:46:15.538Z,7.25
2023-02-01T05:48:42.688Z,6.32
2023-02-01T05:51:10.280Z,7.03
2023-02-01T05:53:37.386Z,7.65
2023-02-01T05:56:04.730Z,6.90
2023-02-01T05:58:32.287Z,5.03
2023-02-01T06:01:02.435Z,7.05
2023-02-01T06:03:29.720Z,8.15
2023-02-01T06:05:56.859Z,7.22
2023-02-01T06:08:26.435Z,6.43
2023-02-01T06:10:59.133Z,6.25
2023-02-01T06:13:26.136Z,7.30
2023-02-01T06:15:53.460Z,6.45
2023-02-01T06:18:20.902Z,7.20
2023-02-01T06:20:53.299Z,5.97
2023-02-01T06:23:20.379Z,6.65
2023-02-01T06:25:47.380Z,6.75
2023-02-01T06:28:14.376Z,7.28
2023-02-01T06:30:44.116Z,7.30
2023-02-01T06:33:11.156Z,7.35
2023-02-01T06:35:38.227Z,6.65
2023-02-01T06:38:05.229Z,6.63
2023-02-01T06:40:32.241Z,6.40
2023-02-01T06:42:59.442Z,7.07
2023-02-01T06:45:26.640Z,7.15
2023-02-01T06:47:53.621Z,7.35
2023-02-01T06:50:21.655Z,7.38
2023-02-01T06:52:48.862Z,6.10
2023-02-01T06:55:15.958Z,5.97
2023-02-01T06:57:42.993Z,7.53
2023-02-01T07:00:10.390Z,6.20
2023-02-01T07:02:37.889Z,6.40
2023-02-01T07:05:04.957Z,6.25
2023-02-01T07:07:32.083Z,6.93
2023-02-01T07:09:59.059Z,6.40
2023-02-01T07:12:26.223Z,6.35
2023-02-01T07:14:53.329Z,6.18
2023-02-01T07:17:20.360Z,6.53
2023-02-01T07:19:47.360Z,5.53
2023-02-01T07:22:14.528Z,5.32
2023-02-01T07:24:41.531Z,5.63
2023-02-01T07:27:08.588Z,5.35
2023-02-01T07:29:35.633Z,5.22
2023-02-01T07:32:03.349Z,4.88
2023-02-01T07:34:31.768Z,4.88
2023-02-01T07:36:58.791Z,4.97
2023-02-01T07:39:25.936Z,5.53
2023-02-01T07:41:53.026Z,5.28
2023-02-01T07:44:23.539Z,4.20
2023-02-01T07:46:51.003Z,5.20
2023-02-01T07:49:18.531Z,5.00
2023-02-01T07:51:45.634Z,4.90
2023-02-01T07:54:12.659Z,4.10
2023-02-01T07:56:39.733Z,5.15
2023-02-01T07:59:07.905Z,5.78
2023-02-01T08:01:35.186Z,4.47
2023-02-01T08:04:03.561Z,5.03
2023-02-01T08:06:32.128Z,4.97
2023-02-01T08:08:59.408Z,5.13
2023-02-01T08:11:27.129Z,4.35
2023-02-01T08:13:54.538Z,4.53
2023-02-01T08:16:22.456Z,3.95
2023-02-01T08:18:49.525Z,3.63
2023-02-01T08:21:18.524Z,3.83
2023-02-01T08:23:46.099Z,4.00
2023-02-01T08:26:13.460Z,4.55
2023-02-01T08:28:41.384Z,4.28
2023-02-01T08:31:10.276Z,3.90
2023-02-01T08:33:40.383Z,4.50
2023-02-01T08:36:08.057Z,4.13
2023-02-01T08:38:37.096Z,3.92
2023-02-01T08:41:11.683Z,3.97
2023-02-01T08:43:39.058Z,3.97
2023-02-01T08:46:07.140Z,4.38
2023-02-01T08:48:34.437Z,4.03
2023-02-01T08:51:08.967Z,3.72
2023-02-01T08:53:37.072Z,4.28
2023-02-01T08:56:04.800Z,4.55
2023-02-01T08:58:31.879Z,4.28
2023-02-01T09:00:58.983Z,4.45
2023-02-01T09:03:26.104Z,3.97
2023-02-01T09:05:54.394Z,3.58
2023-02-01T09:08:21.671Z,4.35
2023-02-01T09:10:48.770Z,3.60
2023-02-01T09:13:15.989Z,3.80
2023-02-01T09:15:43.038Z,3.80
2023-02-01T09:18:10.086Z,2.85
2023-02-01T09:20:38.482Z,3.88
2023-02-01T09:23:07.520Z,3.95
2023-02-01T09:25:34.727Z,3.97
2023-02-01T09:28:01.905Z,4.82
2023-02-01T09:30:30.530Z,4.25
2023-02-01T09:32:58.512Z,3.53
2023-02-01T09:35:25.535Z,3.80
2023-02-01T09:37:53.953Z,4.18
2023-02-01T09:40:21.950Z,3.67
2023-02-01T09:42:49.179Z,3.38
2023-02-01T09:45:21.143Z,3.67
2023-02-01T09:47:54.378Z,3.65
2023-02-01T09:50:23.891Z,2.95
2023-02-01T09:52:59.209Z,3.22
2023-02-01T09:55:31.959Z,3.83
2023-02-01T09:58:02.229Z,3.97
2023-02-01T10:00:31.813Z,3.58
2023-02-01T10:02:58.992Z,3.97
2023-02-01T10:05:32.014Z,3.92
2023-02-01T10:08:21.157Z,4.27
2023-02-01T10:10:50.369Z,4.03
2023-02-01T10:13:24.597Z,3.97
2023-02-01T10:15:56.454Z,4.07
2023-02-01T10:18:23.590Z,3.60
2023-02-01T10:20:50.646Z,4.45
2023-02-01T10:23:34.689Z,4.43
2023-02-01T10:26:07.884Z,4.32
2023-02-01T10:28:35.833Z,5.18
2023-02-01T10:31:03.612Z,4.28
2023-02-01T10:33:44.795Z,3.58
2023-02-01T10:36:21.473Z,3.17
2023-02-01T10:38:48.930Z,3.95
2023-02-01T10:41:17.405Z,4.15
2023-02-01T10:43:44.885Z,3.47
2023-02-01T10:46:12.019Z,4.22
2023-02-01T10:48:41.737Z,3.85
2023-02-01T10:51:13.886Z,4.32
2023-02-01T10:53:53.096Z,5.25
2023-02-01T10:56:24.885Z,3.97
2023-02-01T10:58:52.671Z,3.60
2023-02-01T11:01:21.844Z,4.30
2023-02-01T11:03:55.521Z,4.05
2023-02-01T11:06:29.179Z,4.35
2023-02-01T11:09:10.847Z,4.60
2023-02-01T11:11:50.072Z,5.00
2023-02-01T11:14:19.193Z,3.88
2023-02-01T11:16:54.857Z,4.68
2023-02-01T11:19:21.846Z,4.40
2023-02-01T11:21:59.216Z,4.45
2023-02-01T11:24:27.919Z,4.10
2023-02-01T11:26:58.805Z,3.95
2023-02-01T11:29:30.672Z,4.60
2023-02-01T11:31:58.907Z,4.40
2023-02-01T11:34:27.908Z,3.40
2023-02-01T11:36:56.646Z,4.70
2023-02-01T11:39:27.694Z,3.95
2023-02-01T11:42:01.969Z,4.82
2023-02-01T11:44:39.124Z,4.72
2023-02-01T11:47:24.805Z,4.15
2023-02-01T11:49:59.177Z,4.45
2023-02-01T11:52:29.307Z,4.32
2023-02-01T11:55:14.882Z,4.20
2023-02-01T11:57:53.835Z,5.43
2023-02-01T12:00:32.442Z,5.40
2023-02-01T12:02:59.482Z,5.50
2023-02-01T12:05:47.297Z,5.45
2023-02-01T12:08:23.440Z,4.95
2023-02-01T12:10:56.987Z,4.30
2023-02-01T12:13:23.974Z,5.75
2023-02-01T12:15:50.981Z,4.18
2023-02-01T12:18:30.232Z,5.53
2023-02-01T12:21:15.813Z,5.30
2023-02-01T12:24:00.893Z,4.57
2023-02-01T12:26:33.919Z,4.72
2023-02-01T12:29:19.607Z,5.03
2023-02-01T12:32:04.697Z,5.53
2023-02-01T12:34:47.015Z,4.78
2023-02-01T12:37:24.762Z,5.10
2023-02-01T12:39:51.797Z,5.57
2023-02-01T12:42:24.644Z,5.18
2023-02-01T12:44:51.845Z,4.75
2023-02-01T12:47:21.877Z,5.22
2023-02-01T12:50:08.514Z,4.47
2023-02-01T12:52:44.407Z,5.15
2023-02-01T12:55:14.264Z,5.45
2023-02-01T12:57:44.503Z,4.60
2023-02-01T13:00:14.638Z,4.90
2023-02-01T13:02:51.050Z,3.83
2023-02-01T13:05:19.898Z,5.10
2023-02-01T13:07:50.327Z,4.38
2023-02-01T13:10:24.651Z,3.80
2023-02-01T13:13:01.444Z,4.30
2023-02-01T13:15:35.133Z,4.90
2023-02-01T13:18:03.998Z,4.03
2023-02-01T13:20:44.576Z,4.85
2023-02-01T13:23:17.295Z,5.00
2023-02-01T13:25:52.105Z,5.40
2023-02-01T13:28:28.511Z,4.40
2023-02-01T13:31:07.920Z,4.38
2023-02-01T13:33:58.058Z,4.38
2023-02-01T13:36:44.297Z,4.43
2023-02-01T13:39:21.619Z,5.25
2023-02-01T13:41:58.037Z,4.85
2023-02-01T13:44:31.042Z,4.93
2023-02-01T13:46:59.123Z,5.40
2023-02-01T13:49:27.558Z,5.10
2023-02-01T13:51:56.009Z,5.30
2023-02-01T13:54:39.679Z,5.10
2023-02-01T13:57:15.162Z,5.13
2023-02-01T13:59:42.251Z,4.47
2023-02-01T14:02:27.992Z,4.28
2023-02-01T14:04:55.174Z,4.03
2023-02-01T14:07:23.306Z,4.38
2023-02-01T14:09:50.437Z,4.50
2023-02-01T14:12:36.258Z,4.38
2023-02-01T14:15:38.933Z,4.72
2023-02-01T14:18:30.394Z,4.05
2023-02-01T14:21:22.937Z,4.35
2023-02-01T14:23:53.323Z,3.92
2023-02-01T14:26:22.249Z,4.13
2023-02-01T14:28:54.530Z,3.63
2023-02-01T14:31:33.656Z,4.40
2023-02-01T14:34:01.884Z,4.10
2023-02-01T14:36:40.443Z,4.85
2023-02-01T14:39:20.256Z,3.45
2023-02-01T14:41:48.878Z,4.15
2023-02-01T14:44:23.629Z,3.53
2023-02-01T14:47:05.793Z,3.67
2023-02-01T14:49:34.305Z,4.43
2023-02-01T14:52:01.581Z,3.70
2023-02-01T14:54:28.668Z,3.33
2023-02-01T14:56:56.272Z,3.75
2023-02-01T14:59:25.576Z,3.92
2023-02-01T15:01:55.488Z,3.85
2023-02-01T15:04:22.916Z,3.40
2023-02-01T15:06:52.467Z,3.72
2023-02-01T15:09:26.245Z,3.70
2023-02-01T15:11:56.295Z,3.80
2023-02-01T15:14:23.535Z,3.75
2023-02-01T15:16:56.585Z,3.97
2023-02-01T15:19:25.027Z,2.93
2023-02-01T15:21:54.088Z,4.20
2023-02-01T15:24:23.352Z,4.28
2023-02-01T15:26:50.945Z,3.78
2023-02-01T15:29:18.826Z,3.70
2023-02-01T15:31:47.914Z,3.38
2023-02-01T15:34:15.480Z,3.88
2023-02-01T15:36:53.557Z,4.65
2023-02-01T15:39:27.707Z,3.90
2023-02-01T15:41:56.787Z,4.15
2023-02-01T15:44:32.606Z,3.20
2023-02-01T15:47:00.659Z,4.07
2023-02-01T15:49:32.364Z,3.70
2023-02-01T15:52:03.655Z,4.72
2023-02-01T15:54:33.287Z,3.95
2023-02-01T15:57:01.627Z,4.35
2023-02-01T15:59:34.301Z,3.22
2023-02-01T16:02:01.340Z,4.35
2023-02-01T16:04:33.848Z,3.72
2023-02-01T16:07:04.132Z,4.07
2023-02-01T16:09:52.921Z,4.00
2023-02-01T16:12:43.027Z,4.03
2023-02-01T16:15:10.316Z,3.83
2023-02-01T16:17:37.419Z,3.58
2023-02-01T16:20:04.614Z,3.55
2023-02-01T16:22:31.728Z,3.47
2023-02-01T16:24:58.766Z,3.95
2023-02-01T16:27:25.862Z,3.72
2023-02-01T16:29:56.745Z,3.30
2023-02-01T16:32:24.051Z,3.42
2023-02-01T16:34:51.264Z,2.80
2023-02-01T16:37:21.417Z,3.70
2023-02-01T16:39:49.468Z,3.38
2023-02-01T16:42:17.134Z,3.78
2023-02-01T16:44:44.209Z,3.83
2023-02-01T16:47:14.131Z,3.75
2023-02-01T16:49:42.406Z,3.10
2023-02-01T16:52:13.358Z,3.92
2023-02-01T16:54:40.360Z,4.00
2023-02-01T16:57:09.760Z,3.30
2023-02-01T16:59:36.780Z,3.78
2023-02-01T17:02:03.914Z,3.45
2023-02-01T17:04:31.009Z,3.50
2023-02-01T17:06:59.188Z,3.55
2023-02-01T17:09:26.320Z,3.53
2023-02-01T17:11:53.347Z,4.05
2023-02-01T17:14:22.333Z,4.05
2023-02-01T17:16:50.458Z,4.25
2023-02-01T17:19:18.809Z,4.05
2023-02-01T17:21:49.229Z,4.22
2023-02-01T17:24:16.987Z,3.63
2023-02-01T17:26:44.798Z,3.72
2023-02-01T17:29:12.327Z,4.35
2023-02-01T17:31:41.042Z,3.70
2023-02-01T17:34:08.261Z,4.80
2023-02-01T17:36:36.462Z,3.50
2023-02-01T17:39:05.960Z,3.55
2023-02-01T17:41:34.084Z,4.45
2023-02-01T17:44:01.574Z,3.13
2023-02-01T17:46:28.731Z,3.22
2023-02-01T17:48:56.068Z,3.45
2023-02-01T17:51:24.250Z,3.80
2023-02-01T17:53:51.342Z,3.78
2023-02-01T17:56:19.396Z,3.80
2023-02-01T17:58:46.865Z,3.97
2023-02-01T18:01:21.190Z,6.68
2023-02-01T18:03:48.650Z,3.55
2023-02-01T18:06:19.478Z,4.07
2023-02-01T18:08:46.714Z,4.15
2023-02-01T18:11:15.232Z,4.03
2023-02-01T18:13:42.571Z,3.13
2023-02-01T18:16:20.586Z,3.58
2023-02-01T18:18:48.232Z,3.65
2023-02-01T18:21:17.455Z,3.63
2023-02-01T18:23:44.916Z,2.97
2023-02-01T18:26:12.843Z,4.13
2023-02-01T18:28:40.940Z,2.95
2023-02-01T18:31:08.010Z,3.28
2023-02-01T18:33:35.091Z,3.88
2023-02-01T18:36:02.253Z,3.80
2023-02-01T18:38:29.293Z,3.45
2023-02-01T18:40:58.168Z,3.15
2023-02-01T18:43:26.521Z,2.90
2023-02-01T18:45:55.003Z,3.72
2023-02-01T18:48:22.273Z,3.58
2023-02-01T18:50:51.937Z,3.70
2023-02-01T18:53:19.985Z,3.35
2023-02-01T18:55:47.527Z,4.90
2023-02-01T18:58:15.988Z,3.65
2023-02-01T19:00:44.073Z,3.67
2023-02-01T19:03:14.849Z,4.03
2023-02-01T19:05:41.950Z,5.57
2023-02-01T19:08:09.667Z,3.45
2023-02-01T19:10:38.657Z,3.58
2023-02-01T19:13:06.697Z,4.25
2023-02-01T19:15:35.837Z,3.30
2023-02-01T19:18:02.915Z,3.80
2023-02-01T19:20:29.991Z,2.83
2023-02-01T19:22:57.012Z,3.70
2023-02-01T19:25:25.944Z,3.55
2023-02-01T19:27:53.319Z,3.22
2023-02-01T19:30:21.038Z,3.30
2023-02-01T19:32:48.103Z,3.40
2023-02-01T19:35:16.957Z,3.45
2023-02-01T19:37:44.255Z,2.92
2023-02-01T19:40:12.480Z,4.35
2023-02-01T19:42:39.627Z,3.85
2023-02-01T19:45:07.382Z,3.35
2023-02-01T19:47:34.479Z,3.83
2023-02-01T19:50:01.557Z,3.42
2023-02-01T19:52:28.722Z,4.60
2023-02-01T19:54:55.748Z,3.58
2023-02-01T19:57:23.056Z,3.53
2023-02-01T19:59:50.049Z,3.38
2023-02-01T20:02:16.462Z,3.10
2023-02-01T20:04:43.459Z,3.05
2023-02-01T20:07:11.026Z,3.08
2023-02-01T20:09:40.989Z,3.20
2023-02-01T20:12:08.949Z,3.38
2023-02-01T20:14:35.967Z,4.05
2023-02-01T20:17:04.253Z,3.67
2023-02-01T20:19:31.636Z,3.15
2023-02-01T20:21:59.322Z,3.33
2023-02-01T20:24:29.285Z,3.65
2023-02-01T20:26:57.315Z,4.03
2023-02-01T20:29:24.413Z,2.97
2023-02-01T20:31:51.485Z,3.65
2023-02-01T20:34:18.544Z,3.40
2023-02-01T20:36:45.656Z,3.70
2023-02-01T20:39:12.866Z,3.80
2023-02-01T20:41:40.925Z,3.53
2023-02-01T20:44:07.990Z,2.40
2023-02-01T20:46:35.015Z,3.97
2023-02-01T20:49:02.109Z,4.13
2023-02-01T20:51:29.180Z,2.88
2023-02-01T20:53:56.202Z,2.83
2023-02-01T20:56:23.303Z,3.25
2023-02-01T20:58:50.363Z,3.30
2023-02-01T21:01:17.640Z,2.85
2023-02-01T21:03:44.794Z,3.85
2023-02-01T21:06:13.194Z,3.33
2023-02-01T21:08:41.338Z,3.80
2023-02-01T21:11:10.051Z,4.30
2023-02-01T21:13:42.619Z,3.67
2023-02-01T21:16:10.637Z,3.30
2023-02-01T21:18:38.017Z,3.67
2023-02-01T21:21:06.261Z,3.58
2023-02-01T21:23:33.347Z,2.55
2023-02-01T21:26:03.461Z,3.53
2023-02-01T21:28:30.535Z,3.08
2023-02-01T21:30:57.636Z,3.83
2023-02-01T21:33:24.709Z,3.67
2023-02-01T21:35:52.419Z,3.60
2023-02-01T21:38:19.472Z,3.50
2023-02-01T21:41:06.539Z,3.30
2023-02-01T21:43:33.533Z,3.47
2023-02-01T21:46:00.542Z,3.33
2023-02-01T21:48:27.958Z,3.72
2023-02-01T21:50:56.916Z,2.47
2023-02-01T21:53:24.425Z,2.92
2023-02-01T21:55:51.522Z,3.00
2023-02-01T21:58:18.590Z,3.22
2023-02-01T22:00:46.981Z,3.15
2023-02-01T22:03:14.515Z,2.78
2023-02-01T22:05:41.650Z,3.33
2023-02-01T22:08:08.736Z,2.60
2023-02-01T22:10:35.851Z,3.45
2023-02-01T22:13:02.860Z,1.92
2023-02-01T22:15:30.305Z,3.08
2023-02-01T22:17:57.349Z,3.05
2023-02-01T22:20:24.421Z,3.90
2023-02-01T22:22:51.466Z,2.72
2023-02-01T22:25:18.513Z,2.90
2023-02-01T22:28:32.318Z,3.42
2023-02-01T22:30:32.522Z,3.25
2023-02-01T22:32:59.567Z,3.78
2023-02-01T22:35:27.582Z,4.03
2023-02-01T22:37:54.636Z,2.92
2023-02-01T22:40:21.619Z,3.10
2023-02-01T22:42:49.470Z,3.47
2023-02-01T22:45:16.578Z,3.15
2023-02-01T22:47:43.582Z,2.88
2023-02-01T22:50:10.895Z,3.22
2023-02-01T22:52:37.935Z,3.38
2023-02-01T22:55:05.117Z,3.10
2023-02-01T22:57:32.121Z,3.30
2023-02-01T22:59:59.112Z,2.88
2023-02-01T23:02:26.182Z,2.45
2023-02-01T23:04:53.235Z,2.72
2023-02-01T23:07:20.233Z,2.63
2023-02-01T23:09:47.271Z,2.83
2023-02-01T23:12:14.267Z,3.55
2023-02-01T23:15:01.256Z,3.35
2023-02-01T23:17:28.460Z,2.95
2023-02-01T23:19:55.453Z,3.70
2023-02-01T23:22:22.504Z,3.50
2023-02-01T23:24:49.557Z,2.97
2023-02-01T23:27:16.607Z,3.78
2023-02-01T23:29:43.679Z,3.17
2023-02-01T23:32:10.730Z,3.28
2023-02-01T23:34:37.869Z,3.53
2023-02-01T23:37:05.316Z,3.55
2023-02-01T23:39:33.136Z,2.97
2023-02-01T23:42:01.595Z,3.22
2023-02-01T23:44:28.747Z,3.00
2023-02-01T23:46:55.772Z,2.58
2023-02-01T23:49:22.808Z,3.65
2023-02-01T23:51:53.021Z,2.83
2023-02-01T23:54:23.744Z,3.35
2023-02-01T23:56:50.796Z,2.95
2023-02-01T23:59:19.568Z,3.33
